createdAt,value
2019-02-12T00:02:17.704Z,18.70
2019-02-12T00:04:52.027Z,16.93
2019-02-12T00:07:22.728Z,15.70
2019-02-12T00:09:54.376Z,19.60
2019-02-12T00:12:25.986Z,19.37
2019-02-12T00:14:57.604Z,17.00
2019-02-12T00:17:29.228Z,18.60
2019-02-12T00:20:00.748Z,17.63
2019-02-12T00:22:33.725Z,14.37
2019-02-12T00:25:06.641Z,18.50
2019-02-12T00:27:38.271Z,23.93
2019-02-12T00:30:10.200Z,21.87
2019-02-12T00:32:41.798Z,16.90
2019-02-12T00:35:15.859Z,33.70
2019-02-12T00:37:50.349Z,23.53
2019-02-12T00:40:21.841Z,23.77
2019-02-12T00:42:53.447Z,34.70
2019-02-12T00:45:25.076Z,19.03
2019-02-12T00:47:56.577Z,21.87
2019-02-12T00:50:28.011Z,20.07
2019-02-12T00:52:59.547Z,18.67
2019-02-12T00:55:31.127Z,21.50
2019-02-12T00:58:02.767Z,23.33
2019-02-12T01:00:34.383Z,23.30
2019-02-12T01:03:08.954Z,22.70
2019-02-12T01:05:40.602Z,19.33
2019-02-12T01:08:14.627Z,22.07
2019-02-12T01:10:46.211Z,19.57
2019-02-12T01:13:19.799Z,23.97
2019-02-12T01:15:51.929Z,16.00
2019-02-12T01:18:23.600Z,20.30
2019-02-12T01:20:55.291Z,18.67
2019-02-12T01:23:27.037Z,21.73
2019-02-12T01:25:58.789Z,15.67
2019-02-12T01:28:30.367Z,19.33
2019-02-12T01:31:01.987Z,30.33
2019-02-12T01:33:33.536Z,27.67
2019-02-12T01:36:05.223Z,23.87
2019-02-12T01:38:36.914Z,24.73
2019-02-12T01:41:08.575Z,34.77
2019-02-12T01:43:40.280Z,37.57
2019-02-12T01:46:11.797Z,38.53
2019-02-12T01:48:45.520Z,37.97
2019-02-12T01:51:17.076Z,39.73
2019-02-12T01:53:48.502Z,47.07
2019-02-12T01:56:20.174Z,22.43
2019-02-12T01:58:51.805Z,26.10
2019-02-12T02:01:23.299Z,43.27
2019-02-12T02:03:54.954Z,39.63
2019-02-12T02:06:26.593Z,35.00
2019-02-12T02:08:58.297Z,37.80
2019-02-12T02:11:29.857Z,26.83
2019-02-12T02:14:01.389Z,38.63
2019-02-12T02:16:35.623Z,48.80
2019-02-12T02:19:07.179Z,27.37
2019-02-12T02:21:44.162Z,44.40
2019-02-12T02:24:12.239Z,28.33
2019-02-12T02:26:43.755Z,26.20
2019-02-12T02:29:15.303Z,34.17
2019-02-12T02:31:47.065Z,27.40
2019-02-12T02:34:18.608Z,32.47
2019-02-12T02:36:50.071Z,35.80
2019-02-12T02:39:24.770Z,40.50
2019-02-12T02:41:56.489Z,32.00
2019-02-12T02:44:29.410Z,33.97
2019-02-12T02:47:03.581Z,33.03
2019-02-12T02:49:35.261Z,31.47
2019-02-12T02:52:08.163Z,30.73
2019-02-12T02:54:41.040Z,46.40
2019-02-12T02:57:12.692Z,30.67
2019-02-12T02:59:46.490Z,31.33
2019-02-12T03:02:18.166Z,32.93
2019-02-12T03:04:52.957Z,29.50
2019-02-12T03:07:24.648Z,28.27
2019-02-12T03:09:56.345Z,32.03
2019-02-12T03:12:28.036Z,29.93
2019-02-12T03:14:59.495Z,19.80
2019-02-12T03:17:31.167Z,30.50
2019-02-12T03:20:02.793Z,21.53
2019-02-12T03:22:34.970Z,23.47
2019-02-12T03:25:06.852Z,25.80
2019-02-12T03:27:38.566Z,25.50
2019-02-12T03:30:11.157Z,20.63
2019-02-12T03:32:42.946Z,18.67
2019-02-12T03:35:14.821Z,18.87
2019-02-12T03:37:46.512Z,19.87
2019-02-12T03:40:18.230Z,17.67
2019-02-12T03:42:49.907Z,27.83
2019-02-12T03:45:21.522Z,21.87
2019-02-12T03:47:53.225Z,26.73
2019-02-12T03:50:24.959Z,26.17
2019-02-12T03:52:56.719Z,25.50
2019-02-12T03:55:28.312Z,22.17
2019-02-12T03:58:01.209Z,33.37
2019-02-12T04:00:32.902Z,21.43
2019-02-12T04:03:08.957Z,22.00
2019-02-12T04:05:41.234Z,28.40
2019-02-12T04:08:12.903Z,24.77
2019-02-12T04:10:44.608Z,49.93
2019-02-12T04:13:16.361Z,45.13
2019-02-12T04:15:48.049Z,36.47
2019-02-12T04:18:19.670Z,40.93
2019-02-12T04:20:51.331Z,33.47
2019-02-12T04:23:23.041Z,35.57
2019-02-12T04:25:54.759Z,34.27
2019-02-12T04:28:26.218Z,29.73
2019-02-12T04:30:57.838Z,26.40
2019-02-12T04:33:29.356Z,40.00
2019-02-12T04:36:00.876Z,20.00
2019-02-12T04:38:32.547Z,31.37
2019-02-12T04:41:04.034Z,24.53
2019-02-12T04:43:35.632Z,23.10
2019-02-12T04:46:07.168Z,21.50
2019-02-12T04:48:38.638Z,25.47
2019-02-12T04:51:10.274Z,24.40
2019-02-12T04:53:41.919Z,25.20
2019-02-12T04:56:13.379Z,24.97
2019-02-12T04:58:44.917Z,21.20
2019-02-12T05:01:17.889Z,23.13
2019-02-12T05:03:49.587Z,28.63
2019-02-12T05:06:21.213Z,31.30
2019-02-12T05:09:12.904Z,31.33
2019-02-12T05:11:47.268Z,25.10
2019-02-12T05:14:18.944Z,19.43
2019-02-12T05:16:50.425Z,20.23
2019-02-12T05:19:23.261Z,39.30
2019-02-12T05:21:54.773Z,38.67
2019-02-12T05:24:26.638Z,50.33
2019-02-12T05:26:58.257Z,42.57
2019-02-12T05:29:29.941Z,43.43
2019-02-12T05:32:01.474Z,39.13
2019-02-12T05:34:33.104Z,39.87
2019-02-12T05:37:04.768Z,38.70
2019-02-12T05:39:36.302Z,39.17
2019-02-12T05:42:07.790Z,42.37
2019-02-12T05:44:39.511Z,41.27
2019-02-12T05:47:12.709Z,39.20
2019-02-12T05:49:44.356Z,43.20
2019-02-12T05:52:16.146Z,42.63
2019-02-12T05:54:47.806Z,41.47
2019-02-12T05:57:19.409Z,48.63
2019-02-12T05:59:51.041Z,46.63
2019-02-12T06:02:22.570Z,45.30
2019-02-12T06:04:54.203Z,52.43
2019-02-12T06:07:25.775Z,45.63
2019-02-12T06:09:57.400Z,51.97
2019-02-12T06:12:28.985Z,51.20
2019-02-12T06:15:00.639Z,54.33
2019-02-12T06:17:32.177Z,55.77
2019-02-12T06:20:03.741Z,52.70
2019-02-12T06:22:35.332Z,59.70
2019-02-12T06:25:08.405Z,59.60
2019-02-12T06:27:40.450Z,52.80
2019-02-12T06:30:12.220Z,54.37
2019-02-12T06:32:43.811Z,53.50
2019-02-12T06:35:15.462Z,59.17
2019-02-12T06:37:47.013Z,48.70
2019-02-12T06:40:18.812Z,45.97
2019-02-12T06:42:50.324Z,42.17
2019-02-12T06:45:21.919Z,63.43
2019-02-12T06:47:53.597Z,45.80
2019-02-12T06:50:26.409Z,40.73
2019-02-12T06:52:58.044Z,34.23
2019-02-12T06:55:29.685Z,33.07
2019-02-12T06:58:01.302Z,25.57
2019-02-12T07:00:32.813Z,28.70
2019-02-12T07:03:22.082Z,32.30
2019-02-12T07:06:06.965Z,26.83
2019-02-12T07:08:45.156Z,31.97
2019-02-12T07:11:43.523Z,33.20
2019-02-12T07:14:29.477Z,31.83
2019-02-12T07:17:40.458Z,39.57
2019-02-12T07:20:38.577Z,30.30
2019-02-12T07:23:38.482Z,19.33
2019-02-12T07:26:47.082Z,17.13
2019-02-12T07:30:03.720Z,17.50
2019-02-12T07:32:50.064Z,12.90
2019-02-12T07:36:02.149Z,11.43
2019-02-12T07:38:55.995Z,13.30
2019-02-12T07:41:59.257Z,17.47
2019-02-12T07:44:58.447Z,11.57
2019-02-12T07:48:07.857Z,11.30
2019-02-12T07:51:13.762Z,14.07
2019-02-12T07:54:28.567Z,12.37
2019-02-12T07:57:26.027Z,12.97
2019-02-12T08:00:30.633Z,9.20
2019-02-12T08:03:28.496Z,7.93
2019-02-12T08:06:31.604Z,8.17
2019-02-12T08:09:46.153Z,5.37
2019-02-12T08:13:01.843Z,4.57
2019-02-12T08:15:58.791Z,6.03
2019-02-12T08:18:57.327Z,7.10
2019-02-12T08:21:56.523Z,9.20
2019-02-12T08:24:47.340Z,10.50
2019-02-12T08:28:29.686Z,10.27
2019-02-12T08:31:53.558Z,9.80
2019-02-12T08:35:06.326Z,8.47
2019-02-12T08:38:07.489Z,8.83
2019-02-12T08:41:10.507Z,5.93
2019-02-12T08:44:05.758Z,7.23
2019-02-12T08:47:29.986Z,5.37
2019-02-12T08:50:57.380Z,5.93
2019-02-12T08:54:11.176Z,4.97
2019-02-12T08:57:00.429Z,3.90
2019-02-12T09:00:09.990Z,4.00
2019-02-12T09:03:22.002Z,3.53
2019-02-12T09:06:18.318Z,4.67
2019-02-12T09:09:31.189Z,4.33
2019-02-12T09:12:22.305Z,5.43
2019-02-12T09:15:28.204Z,6.07
2019-02-12T09:18:21.668Z,4.00
2019-02-12T09:21:11.120Z,3.20
2019-02-12T09:24:00.581Z,3.70
2019-02-12T09:27:12.483Z,3.13
2019-02-12T09:30:06.867Z,3.17
2019-02-12T09:33:19.013Z,3.70
2019-02-12T09:36:20.949Z,3.63
2019-02-12T09:39:37.684Z,4.83
2019-02-12T09:42:33.281Z,5.60
2019-02-12T09:45:27.144Z,4.60
2019-02-12T09:48:43.396Z,4.30
2019-02-12T09:51:32.813Z,4.90
2019-02-12T09:54:26.130Z,4.80
2019-02-12T09:57:26.891Z,4.60
2019-02-12T10:00:21.372Z,4.93
2019-02-12T10:03:37.948Z,4.10
2019-02-12T10:06:51.884Z,5.00
2019-02-12T10:09:44.370Z,4.73
2019-02-12T10:13:08.531Z,4.83
2019-02-12T10:16:29.120Z,4.73
2019-02-12T10:19:45.872Z,3.40
2019-02-12T10:23:02.581Z,5.20
2019-02-12T10:25:40.328Z,9.87
2019-02-12T10:28:50.866Z,7.57
2019-02-12T10:31:31.208Z,5.60
2019-02-12T10:34:02.885Z,4.47
2019-02-12T10:36:34.489Z,4.90
2019-02-12T10:39:08.801Z,4.80
2019-02-12T10:41:40.315Z,5.93
2019-02-12T10:44:13.115Z,4.77
2019-02-12T10:46:44.760Z,4.40
2019-02-12T10:49:16.537Z,4.37
2019-02-12T10:51:48.259Z,6.07
2019-02-12T10:54:27.628Z,3.73
2019-02-12T10:56:53.451Z,4.13
2019-02-12T10:59:25.118Z,4.30
2019-02-12T11:01:56.655Z,4.13
2019-02-12T11:04:28.259Z,3.73
2019-02-12T11:06:59.828Z,3.63
2019-02-12T11:09:31.426Z,3.63
2019-02-12T11:12:03.117Z,3.80
2019-02-12T11:14:36.268Z,2.97
2019-02-12T11:17:08.060Z,3.30
2019-02-12T11:19:39.765Z,3.13
2019-02-12T11:22:14.229Z,3.83
2019-02-12T11:24:45.827Z,5.77
2019-02-12T11:27:17.618Z,3.57
2019-02-12T11:29:49.321Z,4.30
2019-02-12T11:32:21.207Z,3.03
2019-02-12T11:34:52.840Z,6.37
2019-02-12T11:37:24.504Z,3.00
2019-02-12T11:39:56.092Z,3.73
2019-02-12T11:42:27.790Z,3.30
2019-02-12T11:44:59.347Z,4.40
2019-02-12T11:47:31.208Z,2.47
2019-02-12T11:50:02.794Z,2.23
2019-02-12T11:52:36.043Z,10.00
2019-02-12T11:55:08.315Z,6.23
2019-02-12T11:57:41.992Z,4.93
2019-02-12T12:00:20.623Z,4.13
2019-02-12T12:02:53.610Z,3.23
2019-02-12T12:05:25.344Z,2.97
2019-02-12T12:07:57.051Z,4.33
2019-02-12T12:10:28.668Z,6.80
2019-02-12T12:13:00.327Z,14.30
2019-02-12T12:15:31.903Z,29.57
2019-02-12T12:18:03.679Z,9.00
2019-02-12T12:20:35.396Z,9.37
2019-02-12T12:23:07.134Z,8.00
2019-02-12T12:25:38.776Z,19.77
2019-02-12T12:28:10.573Z,66.53
2019-02-12T12:30:42.335Z,23.63
2019-02-12T12:33:14.059Z,19.07
2019-02-12T12:35:45.723Z,34.70
2019-02-12T12:38:17.374Z,12.97
2019-02-12T12:40:49.067Z,10.67
2019-02-12T12:43:20.673Z,6.27
2019-02-12T12:45:52.357Z,5.03
2019-02-12T12:48:24.075Z,18.30
2019-02-12T12:50:55.777Z,41.50
2019-02-12T12:53:27.365Z,14.33
2019-02-12T12:55:59.033Z,14.33
2019-02-12T12:58:30.728Z,17.37
2019-02-12T13:01:02.349Z,15.60
2019-02-12T13:03:34.255Z,9.40
2019-02-12T13:06:05.942Z,23.57
2019-02-12T13:08:39.182Z,27.83
2019-02-12T13:11:10.960Z,21.67
2019-02-12T13:13:42.791Z,14.57
2019-02-12T13:16:14.591Z,24.77
2019-02-12T13:18:46.290Z,15.50
2019-02-12T13:21:17.952Z,7.93
2019-02-12T13:23:49.661Z,23.37
2019-02-12T13:26:21.288Z,9.33
2019-02-12T13:28:52.955Z,43.00
2019-02-12T13:31:24.719Z,21.77
2019-02-12T13:33:58.694Z,43.47
2019-02-12T13:36:30.465Z,22.23
2019-02-12T13:39:02.250Z,30.43
2019-02-12T13:41:34.161Z,55.03
2019-02-12T13:44:05.805Z,52.60
2019-02-12T13:46:37.677Z,50.60
2019-02-12T13:49:09.376Z,100.77
2019-02-12T13:51:41.094Z,82.40
2019-02-12T13:54:12.758Z,50.37
2019-02-12T13:56:44.488Z,43.07
2019-02-12T13:59:16.080Z,67.27
2019-02-12T14:01:47.984Z,30.13
2019-02-12T14:04:20.876Z,68.23
2019-02-12T14:06:52.565Z,49.87
2019-02-12T14:09:24.408Z,72.30
2019-02-12T14:11:56.253Z,53.70
2019-02-12T14:14:27.986Z,100.20
2019-02-12T14:16:59.574Z,123.60
2019-02-12T14:19:31.434Z,147.87
2019-02-12T14:22:03.292Z,163.20
2019-02-12T14:24:34.928Z,118.40
2019-02-12T14:27:06.565Z,225.70
2019-02-12T14:29:38.227Z,111.30
2019-02-12T14:32:10.027Z,159.90
2019-02-12T14:34:41.529Z,155.67
2019-02-12T14:37:13.205Z,159.97
2019-02-12T14:39:44.894Z,88.03
2019-02-12T14:42:16.520Z,166.07
2019-02-12T14:44:48.239Z,143.23
2019-02-12T14:47:19.998Z,30.93
2019-02-12T14:49:51.792Z,127.53
2019-02-12T14:52:25.334Z,44.73
2019-02-12T14:54:57.033Z,89.63
2019-02-12T14:57:28.724Z,48.27
2019-02-12T15:00:00.563Z,67.33
2019-02-12T15:02:33.503Z,76.87
2019-02-12T15:05:05.596Z,61.53
2019-02-12T15:07:38.658Z,55.27
2019-02-12T15:10:11.553Z,105.30
2019-02-12T15:12:43.431Z,40.17
2019-02-12T15:15:15.267Z,106.43
2019-02-12T15:17:47.025Z,26.43
2019-02-12T15:20:21.162Z,38.13
2019-02-12T15:22:52.847Z,48.70
2019-02-12T15:25:25.184Z,30.47
2019-02-12T15:27:56.966Z,19.67
2019-02-12T15:30:29.197Z,18.40
2019-02-12T15:33:05.107Z,22.87
2019-02-12T15:35:36.749Z,15.77
2019-02-12T15:38:08.496Z,12.13
2019-02-12T15:40:40.126Z,13.33
2019-02-12T15:43:12.085Z,9.20
2019-02-12T15:45:43.890Z,4.87
2019-02-12T15:48:18.539Z,5.80
2019-02-12T15:50:50.241Z,6.60
2019-02-12T15:53:21.904Z,7.67
2019-02-12T15:55:53.550Z,5.93
2019-02-12T15:58:26.369Z,6.33
2019-02-12T16:00:58.486Z,5.53
2019-02-12T16:03:30.237Z,6.23
2019-02-12T16:06:02.021Z,11.93
2019-02-12T16:08:33.765Z,6.43
2019-02-12T16:11:05.774Z,6.30
2019-02-12T16:13:37.661Z,7.20
2019-02-12T16:16:09.968Z,6.50
2019-02-12T16:18:43.360Z,7.87
2019-02-12T16:21:15.546Z,7.40
2019-02-12T16:23:47.153Z,7.20
2019-02-12T16:26:19.000Z,7.23
2019-02-12T16:28:50.614Z,8.50
2019-02-12T16:31:22.462Z,7.43
2019-02-12T16:33:54.303Z,10.37
2019-02-12T16:36:25.978Z,10.27
2019-02-12T16:38:57.681Z,8.83
2019-02-12T16:41:30.421Z,9.37
2019-02-12T16:44:02.156Z,13.13
2019-02-12T16:46:33.954Z,8.47
2019-02-12T16:49:05.650Z,10.37
2019-02-12T16:51:37.424Z,9.97
2019-02-12T16:54:09.140Z,7.57
2019-02-12T16:56:40.832Z,11.20
2019-02-12T16:59:13.545Z,10.87
2019-02-12T17:01:47.818Z,15.10
2019-02-12T17:04:19.558Z,10.10
2019-02-12T17:06:51.349Z,8.10
2019-02-12T17:09:23.213Z,7.70
2019-02-12T17:11:54.832Z,7.97
2019-02-12T17:14:27.680Z,9.67
2019-02-12T17:17:03.847Z,6.63
2019-02-12T17:19:37.172Z,20.80
2019-02-12T17:22:08.966Z,29.97
2019-02-12T17:24:40.795Z,2.57
2019-02-12T17:27:12.535Z,2.90
2019-02-12T17:29:44.308Z,2.90
2019-02-12T17:32:16.221Z,2.97
2019-02-12T17:34:47.971Z,2.73
2019-02-12T17:37:19.765Z,4.47
2019-02-12T17:39:52.590Z,11.13
2019-02-12T17:42:24.747Z,3.00
2019-02-12T17:44:56.438Z,23.17
2019-02-12T17:47:30.672Z,87.77
2019-02-12T17:50:02.392Z,26.90
2019-02-12T17:52:34.277Z,17.27
2019-02-12T17:55:06.431Z,4.73
2019-02-12T17:57:38.069Z,6.60
2019-02-12T18:00:15.395Z,9.80
2019-02-12T18:02:47.092Z,3.20
2019-02-12T18:05:21.710Z,3.87
2019-02-12T18:07:53.355Z,13.57
2019-02-12T18:10:30.001Z,21.07
2019-02-12T18:13:01.677Z,33.73
2019-02-12T18:15:34.839Z,16.70
2019-02-12T18:18:06.560Z,4.90
2019-02-12T18:20:39.416Z,19.67
2019-02-12T18:23:11.058Z,16.50
2019-02-12T18:25:43.003Z,11.80
2019-02-12T18:28:14.774Z,56.20
2019-02-12T18:30:47.915Z,41.57
2019-02-12T18:33:19.654Z,12.77
2019-02-12T18:35:51.399Z,24.90
2019-02-12T18:38:23.095Z,23.80
2019-02-12T18:40:54.770Z,7.40
2019-02-12T18:43:26.900Z,6.53
2019-02-12T18:45:59.103Z,5.43
2019-02-12T18:48:30.851Z,3.33
2019-02-12T18:51:03.284Z,3.30
2019-02-12T18:53:35.295Z,4.23
2019-02-12T18:56:08.372Z,7.97
2019-02-12T18:58:41.252Z,9.30
2019-02-12T19:01:14.980Z,59.43
2019-02-12T19:03:46.805Z,64.13
2019-02-12T19:06:20.786Z,8.93
2019-02-12T19:08:52.976Z,4.53
2019-02-12T19:11:24.656Z,3.53
2019-02-12T19:14:00.209Z,3.23
2019-02-12T19:16:35.400Z,15.03
2019-02-12T19:19:08.388Z,12.53
2019-02-12T19:21:41.443Z,10.00
2019-02-12T19:24:14.645Z,3.50
2019-02-12T19:26:49.926Z,3.40
2019-02-12T19:29:21.155Z,2.80
2019-02-12T19:31:59.110Z,3.60
2019-02-12T19:34:26.637Z,2.90
2019-02-12T19:36:58.519Z,11.10
2019-02-12T19:39:30.203Z,4.83
2019-02-12T19:42:01.919Z,4.93
2019-02-12T19:44:35.074Z,4.03
2019-02-12T19:47:06.827Z,3.50
2019-02-12T19:49:39.605Z,3.83
2019-02-12T19:52:14.083Z,4.73
2019-02-12T19:54:45.862Z,3.07
2019-02-12T19:57:19.147Z,3.20
2019-02-12T19:59:51.063Z,3.73
2019-02-12T20:02:23.319Z,14.67
2019-02-12T20:04:55.424Z,26.17
2019-02-12T20:07:27.035Z,9.90
2019-02-12T20:10:00.599Z,43.63
2019-02-12T20:12:32.361Z,21.00
2019-02-12T20:15:04.052Z,6.30
2019-02-12T20:17:36.340Z,112.70
2019-02-12T20:20:09.015Z,126.27
2019-02-12T20:22:41.112Z,86.27
2019-02-12T20:25:12.896Z,50.40
2019-02-12T20:27:46.926Z,41.53
2019-02-12T20:30:20.125Z,47.73
2019-02-12T20:32:51.983Z,54.43
2019-02-12T20:35:25.289Z,31.67
2019-02-12T20:37:57.155Z,33.93
2019-02-12T20:40:36.582Z,20.87
2019-02-12T20:43:09.663Z,15.87
2019-02-12T20:45:41.808Z,14.83
2019-02-12T20:48:13.556Z,21.60
2019-02-12T20:50:45.407Z,42.63
2019-02-12T20:53:20.022Z,13.23
2019-02-12T20:55:54.609Z,15.60
2019-02-12T20:58:25.907Z,10.93
2019-02-12T21:00:58.753Z,10.20
2019-02-12T21:03:32.000Z,6.97
2019-02-12T21:06:06.077Z,4.63
2019-02-12T21:08:38.702Z,3.83
2019-02-12T21:11:14.089Z,5.30
2019-02-12T21:13:46.011Z,4.30
2019-02-12T21:16:18.226Z,4.13
2019-02-12T21:18:50.107Z,3.83
2019-02-12T21:21:21.758Z,3.83
2019-02-12T21:23:53.425Z,4.20
2019-02-12T21:26:26.853Z,5.50
2019-02-12T21:28:58.505Z,6.77
2019-02-12T21:31:30.197Z,4.77
2019-02-12T21:34:01.835Z,5.37
2019-02-12T21:36:33.571Z,5.67
2019-02-12T21:39:06.314Z,4.63
2019-02-12T21:41:37.949Z,6.83
2019-02-12T21:44:09.563Z,3.90
2019-02-12T21:46:41.085Z,4.97
2019-02-12T21:49:14.159Z,5.50
2019-02-12T21:51:48.123Z,4.83
2019-02-12T21:54:19.983Z,4.30
2019-02-12T21:56:51.640Z,4.47
2019-02-12T21:59:23.289Z,5.57
2019-02-12T22:01:54.932Z,5.77
2019-02-12T22:04:26.648Z,5.00
2019-02-12T22:06:58.381Z,4.90
2019-02-12T22:09:31.384Z,5.60
2019-02-12T22:12:03.111Z,4.80
2019-02-12T22:14:37.205Z,6.83
2019-02-12T22:17:08.831Z,5.73
2019-02-12T22:19:40.451Z,5.67
2019-02-12T22:22:12.225Z,6.43
2019-02-12T22:24:43.701Z,4.70
2019-02-12T22:27:15.305Z,5.80
2019-02-12T22:29:46.802Z,4.10
2019-02-12T22:32:18.698Z,4.77
2019-02-12T22:34:52.998Z,3.90
2019-02-12T22:37:24.645Z,4.73
2019-02-12T22:39:56.160Z,5.53
2019-02-12T22:42:31.023Z,5.37
2019-02-12T22:45:02.596Z,6.73
2019-02-12T22:47:34.176Z,6.83
2019-02-12T22:50:06.042Z,6.17
2019-02-12T22:52:37.612Z,4.27
2019-02-12T22:55:09.413Z,5.07
2019-02-12T22:57:48.885Z,4.20
2019-02-12T23:00:24.445Z,3.60
2019-02-12T23:02:57.637Z,3.37
2019-02-12T23:05:29.262Z,3.57
2019-02-12T23:08:00.827Z,4.40
2019-02-12T23:10:35.383Z,3.87
2019-02-12T23:13:07.047Z,4.40
2019-02-12T23:15:38.798Z,3.60
2019-02-12T23:18:10.473Z,3.80
2019-02-12T23:20:42.126Z,5.80
2019-02-12T23:23:13.795Z,8.50
2019-02-12T23:25:45.729Z,4.87
2019-02-12T23:28:17.352Z,5.40
2019-02-12T23:30:48.881Z,6.03
2019-02-12T23:33:20.516Z,6.80
2019-02-12T23:35:52.179Z,5.63
2019-02-12T23:38:23.876Z,5.47
2019-02-12T23:40:55.396Z,6.60
2019-02-12T23:43:27.026Z,6.60
2019-02-12T23:45:58.752Z,6.67
2019-02-12T23:48:30.378Z,5.40
2019-02-12T23:51:01.886Z,5.63
2019-02-12T23:53:33.552Z,7.27
2019-02-12T23:56:05.172Z,5.63
2019-02-12T23:58:36.864Z,5.70
